Time;durP1;ratioP1;P1;durP2;ratioP2;P2;SDS_P1;SDS_P2;PMS_P1;PMS_P2;Temp;Humidity;BMP_temperature;BMP_pressure;BME280_temperature;BME280_humidity;BME280_pressure;Samples;Min_cycle;Max_cycle;Signal;HPM_P1;HPM_P2
2023/09/07 00:00:13;;;;;;;3.17;2.60;;;21.50;65.60;;;;;;5093108;28;20577;-72
2023/09/07 00:02:40;;;;;;;3.75;2.17;;;21.50;65.70;;;;;;5094117;28;20081;-72
2023/09/07 00:05:07;;;;;;;3.05;2.22;;;21.40;65.60;;;;;;5094297;28;20056;-72
2023/09/07 00:07:33;;;;;;;3.72;2.60;;;21.40;65.70;;;;;;5107381;28;20059;-72
2023/09/07 00:09:59;;;;;;;3.10;2.10;;;21.40;65.70;;;;;;5113737;28;20079;-72
2023/09/07 00:12:25;;;;;;;4.70;2.60;;;21.30;65.70;;;;;;5112523;28;20031;-72
2023/09/07 00:14:53;;;;;;;4.07;2.90;;;21.30;65.70;;;;;;5062447;28;20127;-72
2023/09/07 00:17:20;;;;;;;3.97;2.88;;;21.30;65.80;;;;;;5099073;28;20062;-72
2023/09/07 00:19:48;;;;;;;2.92;2.40;;;21.30;65.80;;;;;;5113388;28;20047;-72
2023/09/07 00:22:14;;;;;;;4.13;2.10;;;21.20;65.80;;;;;;5111779;28;20043;-72
2023/09/07 00:24:40;;;;;;;4.05;2.90;;;21.20;65.90;;;;;;5113726;28;20048;-72
2023/09/07 00:27:07;;;;;;;4.63;3.05;;;21.20;65.90;;;;;;5102586;28;20044;-72
2023/09/07 00:29:36;;;;;;;4.13;2.78;;;21.20;65.90;;;;;;5092463;28;20054;-72
2023/09/07 00:32:02;;;;;;;4.10;3.15;;;21.10;65.90;;;;;;5093488;28;20396;-72
2023/09/07 00:34:28;;;;;;;3.45;2.92;;;21.10;66.00;;;;;;5093410;28;20036;-72
2023/09/07 00:36:53;;;;;;;4.38;3.20;;;21.10;65.90;;;;;;5095795;28;20123;-72
2023/09/07 00:39:19;;;;;;;4.85;3.10;;;21.10;65.90;;;;;;5093317;28;20047;-72
2023/09/07 00:41:45;;;;;;;3.58;2.85;;;21.00;66.00;;;;;;5093028;28;20044;-72
2023/09/07 00:44:10;;;;;;;5.50;3.35;;;21.00;66.00;;;;;;5092657;28;20051;-72
2023/09/07 00:46:36;;;;;;;4.00;2.60;;;20.90;66.00;;;;;;5092334;28;20039;-72
2023/09/07 00:49:04;;;;;;;6.07;3.70;;;20.90;66.20;;;;;;5092770;28;20048;-72
2023/09/07 00:51:30;;;;;;;3.22;2.80;;;20.90;66.20;;;;;;5092637;28;20127;-72
2023/09/07 00:53:57;;;;;;;4.82;3.00;;;20.80;66.10;;;;;;5103451;28;20039;-72
2023/09/07 00:56:25;;;;;;;4.18;2.78;;;20.80;66.20;;;;;;5108829;28;20089;-72
2023/09/07 00:58:54;;;;;;;2.55;2.17;;;20.80;66.70;;;;;;5092650;28;20044;-72
2023/09/07 01:01:21;;;;;;;4.40;2.58;;;20.70;66.30;;;;;;5092599;28;20048;-72
2023/09/07 01:03:47;;;;;;;3.47;2.38;;;20.70;66.40;;;;;;5085930;28;20044;-72
2023/09/07 01:06:19;;;;;;;4.15;2.30;;;20.70;66.40;;;;;;5081429;28;20044;-72
2023/09/07 01:08:49;;;;;;;3.78;2.72;;;20.70;66.50;;;;;;5111305;28;20046;-72
2023/09/07 01:11:16;;;;;;;3.05;2.20;;;20.70;66.60;;;;;;5087861;28;20079;-72
2023/09/07 01:13:42;;;;;;;3.25;2.28;;;20.70;66.70;;;;;;5093076;28;20068;-72
2023/09/07 01:16:10;;;;;;;2.45;1.83;;;20.60;66.60;;;;;;5093387;28;20047;-72
2023/09/07 01:18:37;;;;;;;2.67;1.90;;;20.70;66.70;;;;;;5112617;28;20044;-72
2023/09/07 01:21:07;;;;;;;4.93;2.50;;;20.60;66.70;;;;;;5085727;28;20052;-72
2023/09/07 01:23:37;;;;;;;3.05;2.22;;;20.60;66.70;;;;;;5071863;28;20044;-72
2023/09/07 01:26:05;;;;;;;2.70;1.85;;;20.60;66.70;;;;;;5084815;28;20039;-72
2023/09/07 01:28:31;;;;;;;3.55;2.08;;;20.60;66.70;;;;;;5091942;28;20101;-72
2023/09/07 01:30:57;;;;;;;2.95;2.03;;;20.60;66.60;;;;;;5092064;28;20040;-72
2023/09/07 01:33:23;;;;;;;3.25;2.00;;;20.60;66.60;;;;;;5092281;28;20032;-72
2023/09/07 01:35:49;;;;;;;3.22;2.40;;;20.60;66.60;;;;;;5092221;28;20501;-72
2023/09/07 01:38:14;;;;;;;3.05;2.15;;;20.60;66.60;;;;;;5083291;28;20464;-72
2023/09/07 01:40:40;;;;;;;3.33;2.10;;;20.60;66.60;;;;;;5071569;28;20051;-72
2023/09/07 01:43:06;;;;;;;3.30;2.25;;;20.60;66.60;;;;;;5096073;28;20042;-72
2023/09/07 01:45:32;;;;;;;2.35;1.77;;;20.60;67.00;;;;;;5111278;28;20047;-72
2023/09/07 01:47:59;;;;;;;3.17;1.90;;;20.50;66.40;;;;;;5095923;28;20119;-72
2023/09/07 01:50:25;;;;;;;3.65;1.92;;;20.50;66.40;;;;;;5091930;28;20049;-72
2023/09/07 01:52:51;;;;;;;3.10;2.08;;;20.50;66.60;;;;;;5079634;28;20040;-72
2023/09/07 01:55:17;;;;;;;2.65;2.03;;;20.50;66.40;;;;;;5080629;28;20078;-72
2023/09/07 01:57:43;;;;;;;2.75;2.00;;;20.50;66.40;;;;;;5103729;28;20115;-72
2023/09/07 02:00:11;;;;;;;3.70;2.15;;;20.40;66.40;;;;;;5091780;28;20052;-72
2023/09/07 02:02:36;;;;;;;2.38;1.90;;;20.50;66.40;;;;;;5091716;28;20488;-72
2023/09/07 02:05:02;;;;;;;2.55;1.85;;;20.40;66.30;;;;;;5091908;28;20075;-72
2023/09/07 02:07:28;;;;;;;2.85;2.13;;;20.40;66.40;;;;;;5103450;28;20452;-72
2023/09/07 02:09:53;;;;;;;2.85;1.92;;;20.40;66.40;;;;;;5111512;28;20122;-72
2023/09/07 02:12:19;;;;;;;3.28;2.47;;;20.40;66.40;;;;;;5110832;28;20032;-72
2023/09/07 02:14:45;;;;;;;3.45;2.53;;;20.60;66.60;;;;;;5101476;28;20032;-72
2023/09/07 02:17:14;;;;;;;3.35;2.30;;;20.40;66.40;;;;;;5100019;28;20084;-72
2023/09/07 02:19:39;;;;;;;2.85;2.00;;;20.30;66.40;;;;;;5095180;28;20483;-72
2023/09/07 02:22:05;;;;;;;3.95;2.03;;;20.30;66.40;;;;;;5095292;28;20043;-72
2023/09/07 02:24:31;;;;;;;2.72;2.00;;;20.30;66.50;;;;;;5090132;28;20411;-72
2023/09/07 02:26:56;;;;;;;3.00;2.47;;;20.30;66.50;;;;;;5097470;28;20058;-72
2023/09/07 02:29:22;;;;;;;3.05;2.50;;;20.30;66.50;;;;;;5111589;28;20067;-72
2023/09/07 02:31:48;;;;;;;2.88;2.20;;;20.30;66.60;;;;;;5095768;28;20058;-72
2023/09/07 02:34:13;;;;;;;2.70;2.03;;;20.20;66.50;;;;;;5091475;28;20051;-72
2023/09/07 02:36:39;;;;;;;3.08;2.20;;;20.20;66.50;;;;;;5093893;28;20098;-72
2023/09/07 02:39:05;;;;;;;2.50;2.30;;;20.20;66.40;;;;;;5109759;28;20039;-72
2023/09/07 02:41:31;;;;;;;2.83;2.20;;;20.20;66.30;;;;;;5073008;28;20040;-72
2023/09/07 02:43:57;;;;;;;3.50;2.25;;;20.20;66.20;;;;;;5091226;28;20051;-72
2023/09/07 02:46:22;;;;;;;3.20;2.20;;;20.10;66.00;;;;;;5092334;28;20044;-72
2023/09/07 02:48:48;;;;;;;3.38;1.92;;;20.10;66.00;;;;;;5109104;28;20040;-72
2023/09/07 02:51:14;;;;;;;3.25;2.78;;;20.10;66.00;;;;;;5111682;28;20035;-72
2023/09/07 02:53:40;;;;;;;5.00;2.72;;;20.00;66.00;;;;;;5111643;28;20047;-72
2023/09/07 02:56:07;;;;;;;3.97;2.50;;;20.00;66.00;;;;;;5107426;28;20039;-72
2023/09/07 02:58:33;;;;;;;3.30;2.30;;;20.00;66.20;;;;;;5106464;28;20043;-72
2023/09/07 03:00:58;;;;;;;2.75;2.20;;;20.00;66.30;;;;;;5109390;28;20500;-72
2023/09/07 03:03:24;;;;;;;3.40;2.22;;;19.90;66.30;;;;;;5111040;28;20043;-72
2023/09/07 03:05:50;;;;;;;5.60;2.33;;;19.90;66.40;;;;;;5112254;28;20059;-72
2023/09/07 03:08:17;;;;;;;3.78;2.35;;;19.90;66.50;;;;;;5102293;28;20055;-72
2023/09/07 03:10:43;;;;;;;4.47;2.33;;;19.90;66.60;;;;;;5077938;28;20039;-72
2023/09/07 03:13:09;;;;;;;3.50;2.40;;;19.80;66.60;;;;;;5093927;28;20090;-72
2023/09/07 03:15:35;;;;;;;3.33;2.17;;;19.80;66.70;;;;;;5095729;28;20052;-72
2023/09/07 03:18:01;;;;;;;3.58;2.50;;;19.80;66.70;;;;;;5104629;28;20040;-72
2023/09/07 03:20:27;;;;;;;3.28;2.53;;;19.80;67.10;;;;;;5114613;28;20135;-72
2023/09/07 03:22:53;;;;;;;2.60;2.20;;;19.80;66.70;;;;;;5114637;28;20036;-72
2023/09/07 03:25:18;;;;;;;4.28;2.42;;;19.70;66.70;;;;;;5114523;28;20332;-72
2023/09/07 03:27:44;;;;;;;4.70;2.38;;;19.70;66.70;;;;;;5095475;28;20042;-72
2023/09/07 03:30:10;;;;;;;3.90;3.10;;;19.70;66.80;;;;;;5094215;28;20123;-72
2023/09/07 03:32:36;;;;;;;4.07;2.78;;;19.70;66.80;;;;;;5094186;28;20036;-72
2023/09/07 03:35:09;;;;;;;3.00;2.47;;;19.60;66.60;;;;;;5099521;28;20032;-72
2023/09/07 03:37:35;;;;;;;5.47;3.25;;;19.60;66.60;;;;;;5108251;28;20044;-72
2023/09/07 03:40:01;;;;;;;3.10;2.47;;;19.60;66.60;;;;;;5093271;28;20036;-72
2023/09/07 03:42:27;;;;;;;4.43;2.88;;;19.60;66.50;;;;;;5094071;28;20044;-72
2023/09/07 03:44:52;;;;;;;5.35;2.45;;;19.50;66.50;;;;;;5093891;28;20173;-72
2023/09/07 03:47:18;;;;;;;4.25;2.58;;;19.50;66.60;;;;;;5097448;28;20039;-72
2023/09/07 03:49:44;;;;;;;3.70;2.20;;;19.50;66.60;;;;;;5102262;28;20561;-70
2023/09/07 03:52:11;;;;;;;3.50;2.20;;;19.50;66.50;;;;;;5093963;28;20054;-70
2023/09/07 03:54:37;;;;;;;2.47;2.25;;;19.40;66.50;;;;;;5094058;28;20047;-70
2023/09/07 03:57:03;;;;;;;5.05;3.13;;;19.40;66.60;;;;;;5094207;28;20054;-71
2023/09/07 03:59:30;;;;;;;3.47;2.45;;;19.40;66.70;;;;;;5076730;28;20044;-70
2023/09/07 04:01:55;;;;;;;3.25;2.40;;;19.40;66.80;;;;;;5093708;28;20075;-71
2023/09/07 04:04:21;;;;;;;3.20;2.40;;;19.30;66.80;;;;;;5112462;28;20462;-70
2023/09/07 04:06:50;;;;;;;4.22;3.08;;;19.30;66.90;;;;;;5093184;28;20054;-70
2023/09/07 04:09:16;;;;;;;3.42;2.30;;;19.30;67.00;;;;;;5093679;28;20397;-70
2023/09/07 04:11:41;;;;;;;5.05;2.80;;;19.30;67.10;;;;;;5093282;28;20090;-70
2023/09/07 04:14:08;;;;;;;3.17;2.63;;;19.20;67.10;;;;;;5089262;28;20029;-70
2023/09/07 04:16:34;;;;;;;3.13;2.83;;;19.20;67.10;;;;;;5056839;28;20049;-70
2023/09/07 04:18:59;;;;;;;3.97;2.17;;;19.20;67.20;;;;;;5106278;28;20036;-70
2023/09/07 04:21:25;;;;;;;3.53;2.63;;;19.10;67.30;;;;;;5093395;28;20036;-72
2023/09/07 04:23:51;;;;;;;5.60;3.17;;;19.10;67.40;;;;;;5093326;28;20078;-70
2023/09/07 04:26:16;;;;;;;4.43;2.50;;;19.10;67.50;;;;;;5094235;28;20044;-70
2023/09/07 04:28:42;;;;;;;3.72;2.45;;;19.10;67.50;;;;;;5110988;28;20051;-70
2023/09/07 04:31:08;;;;;;;3.25;2.55;;;19.10;67.60;;;;;;5102246;28;20506;-71
2023/09/07 04:33:33;;;;;;;4.05;2.78;;;19.00;67.60;;;;;;5085778;28;20042;-70
2023/09/07 04:36:10;;;;;;;3.92;3.03;;;19.00;67.80;;;;;;5099009;28;20425;-70
2023/09/07 04:38:36;;;;;;;6.18;3.75;;;19.00;67.80;;;;;;5113203;28;20043;-70
2023/09/07 04:41:09;;;;;;;3.25;2.55;;;19.00;67.90;;;;;;5113130;28;20036;-70
2023/09/07 04:43:36;;;;;;;3.40;2.60;;;19.00;68.00;;;;;;5096620;28;20387;-70
2023/09/07 04:46:02;;;;;;;3.60;2.95;;;18.90;68.00;;;;;;5094807;28;20055;-70
2023/09/07 04:48:28;;;;;;;3.88;2.70;;;18.90;68.10;;;;;;5089155;28;20041;-70
2023/09/07 04:50:59;;;;;;;4.50;3.03;;;18.90;68.10;;;;;;5072660;28;20087;-70
2023/09/07 04:53:25;;;;;;;4.70;3.55;;;18.90;68.20;;;;;;5072778;28;20040;-71
2023/09/07 04:55:50;;;;;;;3.25;2.70;;;18.90;68.20;;;;;;5104827;28;20051;-70
2023/09/07 04:58:16;;;;;;;3.63;2.67;;;18.90;68.10;;;;;;5112987;28;20177;-70
2023/09/07 05:00:42;;;;;;;3.58;2.70;;;18.90;68.10;;;;;;5106623;28;20066;-70
2023/09/07 05:03:07;;;;;;;6.15;4.00;;;18.90;68.20;;;;;;5109838;28;20039;-70
2023/09/07 05:05:33;;;;;;;5.10;3.50;;;18.80;68.10;;;;;;5099296;28;20043;-70
2023/09/07 05:07:58;;;;;;;4.10;2.80;;;18.80;67.90;;;;;;5092294;28;20407;-70
2023/09/07 05:10:24;;;;;;;4.25;3.70;;;18.80;67.80;;;;;;5076077;28;20140;-70
2023/09/07 05:12:50;;;;;;;3.33;3.00;;;18.80;67.90;;;;;;5092487;28;20415;-70
2023/09/07 05:15:15;;;;;;;5.05;4.22;;;18.70;67.90;;;;;;5095040;28;20089;-70
2023/09/07 05:17:41;;;;;;;4.10;3.50;;;18.70;67.90;;;;;;5093114;28;20047;-70
2023/09/07 05:20:09;;;;;;;4.00;3.30;;;18.70;68.00;;;;;;5092304;28;20032;-70
2023/09/07 05:22:37;;;;;;;3.72;2.80;;;18.70;68.10;;;;;;5092300;28;20085;-70
2023/09/07 05:25:03;;;;;;;4.15;3.75;;;18.70;68.10;;;;;;5101784;28;20046;-70
2023/09/07 05:27:29;;;;;;;4.07;3.28;;;18.70;68.70;;;;;;5112479;28;20055;-70
2023/09/07 05:29:54;;;;;;;5.90;4.50;;;18.70;68.30;;;;;;5108045;28;20040;-70
2023/09/07 05:32:20;;;;;;;5.53;4.88;;;18.60;68.30;;;;;;5090760;28;20072;-71
2023/09/07 05:34:46;;;;;;;6.60;6.00;;;18.60;68.60;;;;;;5099777;28;20062;-70
2023/09/07 05:37:11;;;;;;;6.47;4.65;;;18.60;68.80;;;;;;5094725;28;20074;-71
2023/09/07 05:39:37;;;;;;;6.53;4.75;;;18.60;69.00;;;;;;5112346;28;20043;-70
2023/09/07 05:42:03;;;;;;;6.55;4.85;;;18.60;69.00;;;;;;5112332;28;20558;-70
2023/09/07 05:44:28;;;;;;;6.18;4.47;;;18.60;69.00;;;;;;5108410;28;20058;-70
2023/09/07 05:46:54;;;;;;;5.13;4.63;;;18.60;69.10;;;;;;5112068;28;20440;-70
2023/09/07 05:49:20;;;;;;;5.85;4.90;;;18.60;69.10;;;;;;5081796;28;20040;-71
2023/09/07 05:51:45;;;;;;;5.95;5.32;;;18.60;69.20;;;;;;5071949;28;20047;-71
2023/09/07 05:54:11;;;;;;;8.95;6.63;;;18.60;69.50;;;;;;5094608;28;20119;-71
2023/09/07 05:56:37;;;;;;;6.47;5.72;;;18.60;69.90;;;;;;5093994;28;20039;-72
2023/09/07 05:59:02;;;;;;;8.52;6.22;;;18.50;70.20;;;;;;5102618;28;20047;-71
2023/09/07 06:01:28;;;;;;;9.50;6.20;;;18.50;70.50;;;;;;5098039;28;20449;-72
2023/09/07 06:03:54;;;;;;;9.50;6.43;;;18.50;70.90;;;;;;5091743;28;20046;-71
2023/09/07 06:06:20;;;;;;;7.85;5.80;;;18.50;71.10;;;;;;5086997;28;20055;-73
2023/09/07 06:08:45;;;;;;;6.78;5.38;;;18.60;71.90;;;;;;5091993;28;20086;-72
2023/09/07 06:11:11;;;;;;;7.90;6.18;;;18.60;72.60;;;;;;5091663;28;20040;-73
2023/09/07 06:13:37;;;;;;;7.57;5.50;;;18.70;72.80;;;;;;5087140;28;20113;-73
2023/09/07 06:16:02;;;;;;;7.20;5.38;;;18.80;72.90;;;;;;5063450;28;20547;-73
2023/09/07 06:18:28;;;;;;;6.75;5.70;;;19.10;72.70;;;;;;5112208;28;20070;-73
2023/09/07 06:20:54;;;;;;;9.82;5.53;;;19.30;72.00;;;;;;5093459;28;20074;-73
2023/09/07 06:23:20;;;;;;;7.18;5.05;;;19.60;71.60;;;;;;5091676;28;20048;-73
2023/09/07 06:25:45;;;;;;;7.57;5.20;;;19.80;71.20;;;;;;5093079;28;20488;-73
2023/09/07 06:28:12;;;;;;;5.47;4.63;;;20.10;70.80;;;;;;5105747;28;20047;-73
2023/09/07 06:30:38;;;;;;;9.20;5.57;;;20.40;70.20;;;;;;5095851;28;20048;-73
2023/09/07 06:33:04;;;;;;;6.72;4.72;;;20.70;69.30;;;;;;5086078;28;20044;-72
2023/09/07 06:35:30;;;;;;;6.88;5.28;;;21.00;68.30;;;;;;5085777;28;20043;-73
2023/09/07 06:37:59;;;;;;;6.95;5.07;;;21.30;66.90;;;;;;5087168;28;20032;-73
2023/09/07 06:40:25;;;;;;;6.78;4.80;;;21.50;66.10;;;;;;5086150;28;20380;-73
2023/09/07 06:42:52;;;;;;;6.07;4.97;;;21.70;65.10;;;;;;5090195;28;20375;-73
2023/09/07 06:45:18;;;;;;;5.03;4.40;;;21.80;64.10;;;;;;5089694;28;20044;-73
2023/09/07 06:47:44;;;;;;;6.82;4.47;;;21.90;63.70;;;;;;5090281;28;20138;-73
2023/09/07 06:50:10;;;;;;;8.13;5.05;;;21.90;63.50;;;;;;5090240;28;20464;-73
2023/09/07 06:52:35;;;;;;;6.93;5.10;;;22.00;63.30;;;;;;5088188;28;20390;-73
2023/09/07 06:55:01;;;;;;;6.05;4.95;;;22.00;63.10;;;;;;5072838;28;20036;-73
2023/09/07 06:57:27;;;;;;;6.88;5.30;;;22.00;63.20;;;;;;5089898;28;20039;-73
2023/09/07 06:59:53;;;;;;;7.28;5.20;;;22.00;62.20;;;;;;5089530;28;20100;-73
2023/09/07 07:02:18;;;;;;;8.43;5.55;;;22.00;62.10;;;;;;5090834;28;20048;-73
2023/09/07 07:04:46;;;;;;;8.18;5.03;;;22.00;62.20;;;;;;5089629;28;21360;-73
2023/09/07 07:07:11;;;;;;;6.20;5.03;;;22.10;62.20;;;;;;5088982;28;20044;-73
2023/09/07 07:09:37;;;;;;;6.38;5.20;;;22.10;62.10;;;;;;5089198;28;20044;-73
2023/09/07 07:12:03;;;;;;;5.57;4.97;;;22.10;61.90;;;;;;5089351;28;20036;-73
2023/09/07 07:14:29;;;;;;;5.90;4.72;;;22.10;61.70;;;;;;5089319;28;20036;-73
2023/09/07 07:16:55;;;;;;;5.60;4.75;;;22.20;61.80;;;;;;5089489;28;20052;-73
2023/09/07 07:19:20;;;;;;;6.38;4.43;;;22.20;61.90;;;;;;5089053;28;20186;-73
2023/09/07 07:21:46;;;;;;;5.40;4.90;;;22.20;61.70;;;;;;5089550;28;20063;-73
2023/09/07 07:24:12;;;;;;;7.25;4.65;;;22.20;61.70;;;;;;5089079;28;20475;-73
2023/09/07 07:26:37;;;;;;;6.95;4.97;;;22.20;61.90;;;;;;5088509;28;20047;-73
2023/09/07 07:29:03;;;;;;;7.38;4.82;;;22.30;62.00;;;;;;5088838;28;20067;-73
2023/09/07 07:31:29;;;;;;;5.35;4.85;;;22.30;61.30;;;;;;5089158;28;20036;-73
2023/09/07 07:33:55;;;;;;;6.55;4.90;;;22.30;61.40;;;;;;5088927;28;20146;-73
2023/09/07 07:36:21;;;;;;;6.53;4.70;;;22.30;61.70;;;;;;5088910;28;20126;-73
2023/09/07 07:38:47;;;;;;;6.90;4.75;;;22.30;61.50;;;;;;5088675;28;20059;-73
2023/09/07 07:41:13;;;;;;;6.50;4.68;;;22.30;61.50;;;;;;5088851;28;20044;-73
2023/09/07 07:43:39;;;;;;;4.70;4.20;;;22.30;61.60;;;;;;5087882;28;20055;-73
2023/09/07 07:46:05;;;;;;;6.07;4.93;;;22.30;62.10;;;;;;5072011;28;20044;-73
2023/09/07 07:48:31;;;;;;;7.00;4.28;;;22.40;61.90;;;;;;5088635;28;20040;-73
2023/09/07 07:50:56;;;;;;;5.93;4.72;;;22.40;61.60;;;;;;5088818;28;20080;-73
2023/09/07 07:53:25;;;;;;;4.32;3.85;;;22.50;61.50;;;;;;5087952;28;20497;-73
2023/09/07 07:55:51;;;;;;;6.50;4.20;;;22.60;60.90;;;;;;5089871;28;20141;-73
2023/09/07 07:58:16;;;;;;;5.25;3.75;;;22.70;60.50;;;;;;5088900;28;20804;-73
2023/09/07 08:00:47;;;;;;;4.55;3.90;;;22.80;60.30;;;;;;5087206;28;20506;-73
2023/09/07 08:03:13;;;;;;;6.25;3.97;;;22.80;59.80;;;;;;5072448;28;20047;-73
2023/09/07 08:05:39;;;;;;;9.82;4.68;;;22.90;59.50;;;;;;5088142;28;20095;-72
2023/09/07 08:08:05;;;;;;;5.32;3.78;;;23.00;59.40;;;;;;5088019;28;20526;-72
2023/09/07 08:10:41;;;;;;;6.82;4.10;;;23.20;59.20;;;;;;5088056;28;20040;-72
2023/09/07 08:13:07;;;;;;;5.05;4.43;;;23.30;59.30;;;;;;5087410;28;20082;-72
2023/09/07 08:15:34;;;;;;;6.82;4.00;;;23.50;58.60;;;;;;5087870;28;20198;-72
2023/09/07 08:18:00;;;;;;;4.13;3.55;;;23.60;58.20;;;;;;5087213;28;20133;-72
2023/09/07 08:20:26;;;;;;;7.30;4.65;;;23.80;58.20;;;;;;5087948;28;20032;-72
2023/09/07 08:22:52;;;;;;;5.95;3.95;;;23.90;57.50;;;;;;5087914;28;20028;-72
2023/09/07 08:25:18;;;;;;;6.75;4.10;;;24.00;57.60;;;;;;5088002;28;20116;-72
2023/09/07 08:27:45;;;;;;;6.65;4.22;;;24.10;57.00;;;;;;5087999;28;20558;-72
2023/09/07 08:30:17;;;;;;;4.70;3.53;;;24.20;56.80;;;;;;5103899;28;20070;-71
2023/09/07 08:32:46;;;;;;;7.65;4.38;;;24.40;55.60;;;;;;5086905;28;20050;-72
2023/09/07 08:35:13;;;;;;;4.05;3.50;;;24.50;55.40;;;;;;5086925;28;20135;-72
2023/09/07 08:37:40;;;;;;;8.27;4.10;;;24.60;56.00;;;;;;5070865;28;20044;-71
2023/09/07 08:40:09;;;;;;;4.70;3.67;;;24.80;55.60;;;;;;5087297;28;20048;-72
2023/09/07 08:42:39;;;;;;;6.10;4.15;;;24.90;55.20;;;;;;5088053;28;20126;-72
2023/09/07 08:45:07;;;;;;;4.88;3.92;;;25.00;55.50;;;;;;5070470;28;20047;-71
2023/09/07 08:47:35;;;;;;;5.07;4.10;;;25.10;55.20;;;;;;5087493;28;20032;-71
2023/09/07 08:50:02;;;;;;;5.15;3.67;;;25.20;53.80;;;;;;5086221;28;20044;-72
2023/09/07 08:52:28;;;;;;;5.20;3.85;;;25.30;53.50;;;;;;5086991;28;20038;-72
2023/09/07 08:54:55;;;;;;;5.88;3.90;;;25.40;53.00;;;;;;5087337;28;20052;-72
2023/09/07 08:57:22;;;;;;;6.88;3.85;;;25.40;52.80;;;;;;5087184;28;20051;-72
2023/09/07 08:59:49;;;;;;;5.18;4.03;;;25.50;53.30;;;;;;5086789;28;20666;-71
2023/09/07 09:02:16;;;;;;;8.82;3.97;;;25.60;53.20;;;;;;5072034;28;20078;-71
2023/09/07 09:04:42;;;;;;;7.78;4.25;;;25.70;52.70;;;;;;5086824;28;20080;-71
2023/09/07 09:07:08;;;;;;;6.75;3.53;;;25.80;52.30;;;;;;5087886;28;20094;-72
2023/09/07 09:09:33;;;;;;;6.47;3.85;;;25.80;52.80;;;;;;5087248;28;20044;-72
2023/09/07 09:12:10;;;;;;;6.13;3.72;;;26.00;53.20;;;;;;5088512;28;20548;-72
2023/09/07 09:14:35;;;;;;;6.90;4.07;;;26.10;53.20;;;;;;5086955;28;20491;-71
2023/09/07 09:17:01;;;;;;;4.45;3.80;;;26.20;52.20;;;;;;5087803;28;20085;-72
2023/09/07 09:19:34;;;;;;;7.03;4.28;;;26.20;52.10;;;;;;5087876;28;20050;-71
2023/09/07 09:22:00;;;;;;;4.88;3.92;;;26.30;51.60;;;;;;5088089;28;20139;-71
2023/09/07 09:24:26;;;;;;;5.13;3.80;;;26.30;51.90;;;;;;5085443;28;20048;-71
2023/09/07 09:26:52;;;;;;;4.28;3.67;;;26.40;51.90;;;;;;5088066;28;20044;-70
2023/09/07 09:29:23;;;;;;;5.07;3.70;;;26.40;52.30;;;;;;5087193;28;20115;-70
2023/09/07 09:31:48;;;;;;;5.72;3.78;;;26.40;52.30;;;;;;5086828;28;20039;-70
2023/09/07 09:34:15;;;;;;;7.60;4.28;;;26.50;52.20;;;;;;5069833;28;20051;-70
2023/09/07 09:36:43;;;;;;;4.72;3.95;;;26.60;52.00;;;;;;5086777;28;20071;-69
2023/09/07 09:39:09;;;;;;;4.78;3.83;;;26.70;51.50;;;;;;5085917;28;20052;-71
2023/09/07 09:41:35;;;;;;;5.60;3.63;;;26.80;51.30;;;;;;5086461;28;20130;-74
2023/09/07 09:44:03;;;;;;;6.25;4.13;;;26.80;50.90;;;;;;5070135;28;20064;-74
2023/09/07 09:46:31;;;;;;;5.15;3.95;;;26.90;50.10;;;;;;5070529;28;20560;-74
2023/09/07 09:48:58;;;;;;;3.78;3.42;;;27.00;50.90;;;;;;5086420;28;20043;-74
2023/09/07 09:51:24;;;;;;;3.78;3.38;;;27.10;51.40;;;;;;5086439;28;20123;-74
2023/09/07 09:53:51;;;;;;;5.72;3.72;;;27.20;50.90;;;;;;5086178;28;20036;-75
2023/09/07 09:56:17;;;;;;;6.15;3.92;;;27.30;51.70;;;;;;5084694;28;20071;-74
2023/09/07 09:58:43;;;;;;;4.80;3.80;;;27.40;51.50;;;;;;5086274;28;20158;-74
2023/09/07 10:01:10;;;;;;;4.30;3.53;;;27.50;51.00;;;;;;5085683;28;20170;-74
2023/09/07 10:03:48;;;;;;;4.60;3.78;;;27.60;49.90;;;;;;5085839;28;20506;-74
2023/09/07 10:06:28;;;;;;;7.30;3.67;;;27.70;49.70;;;;;;5085688;28;20388;-74
2023/09/07 10:09:06;;;;;;;3.95;3.40;;;27.80;49.10;;;;;;5085508;28;20106;-74
2023/09/07 10:11:37;;;;;;;6.30;3.75;;;27.80;49.20;;;;;;5086224;28;20131;-75
2023/09/07 10:14:05;;;;;;;4.35;3.42;;;27.80;49.60;;;;;;5085333;28;20020;-74
2023/09/07 10:16:47;;;;;;;4.40;3.92;;;27.90;49.20;;;;;;5089051;28;20086;-75
2023/09/07 10:19:23;;;;;;;5.22;3.47;;;27.90;49.80;;;;;;5090510;28;20487;-75
2023/09/07 10:21:52;;;;;;;6.30;3.58;;;28.00;48.80;;;;;;5090576;28;20082;-75
2023/09/07 10:24:35;;;;;;;4.30;3.50;;;28.10;48.60;;;;;;5091222;28;20360;-75
2023/09/07 10:27:03;;;;;;;;;;;28.10;48.90;;;;;;5090621;28;20448;-75
2023/09/07 10:29:28;;;;;;;9.00;4.32;;;28.20;49.90;;;;;;5089672;28;19919;-74
2023/09/07 10:31:54;;;;;;;6.18;3.70;;;28.20;48.60;;;;;;5088908;28;20635;-75
2023/09/07 10:34:22;;;;;;;5.47;3.72;;;28.40;47.60;;;;;;5090057;28;20078;-76
2023/09/07 10:36:47;;;;;;;5.05;3.55;;;28.50;47.70;;;;;;5090344;28;20044;-75
2023/09/07 10:39:13;;;;;;;6.82;4.45;;;28.50;48.20;;;;;;5089950;28;20387;-75
2023/09/07 10:41:44;;;;;;;5.82;3.88;;;28.60;48.20;;;;;;5073306;28;20132;-74
2023/09/07 10:44:10;;;;;;;5.30;3.25;;;28.70;47.30;;;;;;5089564;28;20046;-75
2023/09/07 10:46:38;;;;;;;6.53;3.75;;;28.80;47.80;;;;;;5088991;28;20040;-75
2023/09/07 10:49:06;;;;;;;6.22;3.97;;;28.90;48.00;;;;;;5090604;28;20032;-75
2023/09/07 10:51:32;;;;;;;4.65;3.45;;;29.00;47.50;;;;;;5089841;28;20039;-75
2023/09/07 10:53:57;;;;;;;7.35;3.63;;;29.10;47.70;;;;;;5089425;28;20040;-76
2023/09/07 10:56:26;;;;;;;5.80;3.42;;;29.10;47.90;;;;;;5089062;28;20043;-75
2023/09/07 10:58:54;;;;;;;4.28;3.40;;;29.20;47.70;;;;;;5073000;28;20040;-75
2023/09/07 11:01:20;;;;;;;5.32;3.92;;;29.30;47.60;;;;;;5087637;28;20123;-76
2023/09/07 11:03:46;;;;;;;4.75;3.28;;;29.40;47.60;;;;;;5089307;28;20089;-76
2023/09/07 11:06:19;;;;;;;5.13;3.38;;;29.40;47.20;;;;;;5072654;28;20048;-75
2023/09/07 11:08:48;;;;;;;5.97;3.50;;;29.50;46.70;;;;;;5089765;28;20084;-75
2023/09/07 11:11:14;;;;;;;4.13;3.33;;;29.50;45.90;;;;;;5089347;28;20039;-76
2023/09/07 11:13:40;;;;;;;4.93;3.22;;;29.60;46.10;;;;;;5089386;28;20097;-75
2023/09/07 11:16:09;;;;;;;4.28;3.30;;;29.60;46.30;;;;;;5089650;28;20048;-74
2023/09/07 11:18:36;;;;;;;7.50;3.17;;;29.60;46.10;;;;;;5070624;28;20051;-75
2023/09/07 11:21:03;;;;;;;3.80;2.65;;;29.70;45.70;;;;;;5089065;28;20044;-75
2023/09/07 11:23:37;;;;;;;5.57;3.28;;;29.70;44.80;;;;;;5072867;28;20051;-75
2023/09/07 11:26:08;;;;;;;4.40;3.30;;;29.70;43.90;;;;;;5089225;28;20085;-75
2023/09/07 11:28:34;;;;;;;3.90;3.35;;;29.70;43.20;;;;;;5087977;28;20050;-74
2023/09/07 11:31:00;;;;;;;4.13;3.03;;;29.70;42.80;;;;;;5072265;28;20620;-75
2023/09/07 11:33:27;;;;;;;4.28;2.97;;;29.70;43.10;;;;;;5089045;28;20544;-75
2023/09/07 11:35:54;;;;;;;4.10;3.40;;;29.70;43.20;;;;;;5088118;28;20040;-75
2023/09/07 11:38:20;;;;;;;5.15;3.70;;;29.70;43.30;;;;;;5087992;28;20441;-75
2023/09/07 11:40:46;;;;;;;6.32;3.45;;;29.70;44.10;;;;;;5088555;28;20040;-75
2023/09/07 11:43:13;;;;;;;3.83;2.90;;;29.70;44.10;;;;;;5088877;28;20063;-75
2023/09/07 11:45:40;;;;;;;3.95;3.20;;;29.80;43.50;;;;;;5088715;28;20040;-75
2023/09/07 11:48:08;;;;;;;4.25;3.13;;;29.80;43.40;;;;;;5088664;28;20040;-75
2023/09/07 11:50:33;;;;;;;4.15;3.10;;;29.80;43.70;;;;;;5088590;28;20089;-74
2023/09/07 11:52:59;;;;;;;6.38;2.88;;;29.80;42.60;;;;;;5087887;28;20036;-74
2023/09/07 11:55:25;;;;;;;5.20;3.33;;;29.80;42.30;;;;;;5088943;28;20028;-73
2023/09/07 11:57:51;;;;;;;5.13;3.42;;;29.80;42.60;;;;;;5088136;28;20060;-74
2023/09/07 12:00:17;;;;;;;5.20;3.58;;;29.80;42.50;;;;;;5088210;28;20082;-74
2023/09/07 12:02:43;;;;;;;4.43;3.00;;;29.90;42.60;;;;;;5089170;28;20446;-74
2023/09/07 12:05:09;;;;;;;6.03;3.05;;;29.90;42.00;;;;;;5088253;28;20038;-74
2023/09/07 12:07:38;;;;;;;4.70;3.28;;;29.90;42.70;;;;;;5088194;28;20475;-73
2023/09/07 12:10:04;;;;;;;3.30;2.83;;;29.90;41.80;;;;;;5069694;28;20036;-74
2023/09/07 12:12:30;;;;;;;4.10;3.22;;;29.90;42.50;;;;;;5087979;28;20043;-74
2023/09/07 12:14:56;;;;;;;6.13;3.30;;;29.90;42.00;;;;;;5071573;28;20043;-74
2023/09/07 12:17:22;;;;;;;4.78;3.05;;;30.00;42.20;;;;;;5088112;28;20474;-74
2023/09/07 12:19:50;;;;;;;6.38;3.05;;;30.00;41.70;;;;;;5088073;28;20051;-74
2023/09/07 12:22:15;;;;;;;5.47;3.10;;;30.00;41.30;;;;;;5088171;28;20491;-74
2023/09/07 12:24:41;;;;;;;5.40;3.33;;;30.10;41.90;;;;;;5087711;28;20088;-74
2023/09/07 12:27:07;;;;;;;4.53;3.38;;;30.10;42.10;;;;;;5088643;28;20068;-74
2023/09/07 12:29:32;;;;;;;5.60;3.28;;;30.10;42.20;;;;;;5088136;28;20415;-74
2023/09/07 12:31:58;;;;;;;7.43;3.60;;;30.10;42.60;;;;;;5088545;28;20047;-74
2023/09/07 12:34:25;;;;;;;4.65;3.72;;;30.10;42.80;;;;;;5086545;28;20519;-74
2023/09/07 12:36:52;;;;;;;5.55;3.03;;;30.10;42.90;;;;;;5086979;28;20052;-74
2023/09/07 12:39:17;;;;;;;4.22;3.05;;;30.10;43.10;;;;;;5087476;28;20040;-74
2023/09/07 12:41:43;;;;;;;4.57;3.28;;;30.10;42.80;;;;;;5083790;28;20044;-74
2023/09/07 12:44:09;;;;;;;5.50;3.63;;;30.10;43.50;;;;;;5077049;28;20170;-73